Time;durP1;ratioP1;P1;durP2;ratioP2;P2;SDS_P1;SDS_P2;PMS_P1;PMS_P2;Temp;Humidity;BMP_temperature;BMP_pressure;BME280_temperature;BME280_humidity;BME280_pressure;Samples;Min_cycle;Max_cycle;Signal;HPM_P1;HPM_P2
2022/10/05 00:02:23;;;;;;;14.93;9.43;;;16.40;99.90;;;;;;5092340;28;20107;-72
2022/10/05 00:04:55;;;;;;;15.82;8.80;;;16.40;99.90;;;;;;5092299;28;20024;-72
2022/10/05 00:07:22;;;;;;;15.75;8.90;;;16.30;99.90;;;;;;5092402;28;20028;-72
2022/10/05 00:09:58;;;;;;;18.42;9.60;;;16.20;99.90;;;;;;5092432;28;20068;-72
2022/10/05 00:12:26;;;;;;;17.70;8.95;;;16.20;99.90;;;;;;5095732;28;20531;-71
2022/10/05 00:14:58;;;;;;;13.45;8.95;;;16.30;99.90;;;;;;5077858;28;20063;-72
2022/10/05 00:17:26;;;;;;;21.48;9.02;;;16.30;99.90;;;;;;5051447;28;20365;-72
2022/10/05 00:19:52;;;;;;;14.68;8.23;;;16.50;99.90;;;;;;5095994;28;20085;-72
2022/10/05 00:22:27;;;;;;;12.40;8.63;;;16.50;99.90;;;;;;5095596;28;20024;-72
2022/10/05 00:24:56;;;;;;;13.95;9.00;;;16.30;99.90;;;;;;5095810;28;20036;-72
2022/10/05 00:27:25;;;;;;;14.82;8.48;;;16.20;99.90;;;;;;5076991;28;20115;-72
2022/10/05 00:29:58;;;;;;;13.18;8.60;;;16.20;99.90;;;;;;5095594;28;20085;-71
2022/10/05 00:32:25;;;;;;;12.63;8.90;;;16.10;99.90;;;;;;5077303;28;20020;-72
2022/10/05 00:34:52;;;;;;;14.05;8.68;;;16.10;99.90;;;;;;5077905;28;20024;-72
2022/10/05 00:37:18;;;;;;;15.90;8.40;;;16.20;99.90;;;;;;5095353;28;20032;-72
2022/10/05 00:39:44;;;;;;;13.35;8.63;;;16.20;99.90;;;;;;5095474;28;20028;-71
2022/10/05 00:42:21;;;;;;;13.90;8.52;;;16.20;99.90;;;;;;5076841;28;20035;-71
2022/10/05 00:44:57;;;;;;;15.68;8.95;;;16.20;99.90;;;;;;5077654;28;20457;-72
2022/10/05 00:47:44;;;;;;;15.40;8.20;;;16.20;99.90;;;;;;5095237;28;20032;-72
2022/10/05 00:50:26;;;;;;;16.67;9.05;;;16.20;99.90;;;;;;5095191;28;20073;-71
2022/10/05 00:53:07;;;;;;;16.92;8.27;;;16.10;99.90;;;;;;5095186;28;20025;-72
2022/10/05 00:55:38;;;;;;;15.20;9.45;;;16.10;99.90;;;;;;5094970;28;20580;-72
2022/10/05 00:58:27;;;;;;;24.30;9.20;;;16.10;99.90;;;;;;5076666;28;20093;-71
2022/10/05 01:01:10;;;;;;;15.32;9.00;;;16.10;99.90;;;;;;5095021;28;20468;-72
2022/10/05 01:03:49;;;;;;;11.55;7.82;;;16.10;99.90;;;;;;5095169;28;20020;-72
2022/10/05 01:06:42;;;;;;;18.75;9.35;;;16.10;99.90;;;;;;5076597;28;20108;-72
2022/10/05 01:09:51;;;;;;;10.98;8.70;;;15.90;99.90;;;;;;5043424;28;20044;-72
2022/10/05 01:12:30;;;;;;;16.13;8.68;;;16.10;99.90;;;;;;5076400;28;20624;-72
2022/10/05 01:15:09;;;;;;;12.30;7.97;;;16.10;99.90;;;;;;5093964;28;20031;-72
2022/10/05 01:17:45;;;;;;;19.23;9.23;;;16.00;99.90;;;;;;5064780;28;20111;-71
2022/10/05 01:20:29;;;;;;;14.02;8.75;;;16.20;99.90;;;;;;5076530;28;20035;-72
2022/10/05 01:23:28;;;;;;;14.52;8.13;;;16.20;99.90;;;;;;5075493;28;20031;-72
2022/10/05 01:26:34;;;;;;;18.48;8.52;;;16.10;99.90;;;;;;5067521;28;20093;-72
2022/10/05 01:29:22;;;;;;;18.85;8.38;;;16.00;99.90;;;;;;5075888;28;20384;-72
2022/10/05 01:32:06;;;;;;;16.65;8.18;;;16.00;99.90;;;;;;5095088;28;20043;-67
2022/10/05 01:34:43;;;;;;;11.18;7.80;;;16.00;99.90;;;;;;5070779;28;20384;-69
2022/10/05 01:37:18;;;;;;;14.50;7.70;;;15.90;99.90;;;;;;5076186;28;20480;-72
2022/10/05 01:39:55;;;;;;;15.75;8.75;;;16.00;99.90;;;;;;5079389;28;20038;-71
2022/10/05 01:42:44;;;;;;;17.05;7.40;;;16.00;99.90;;;;;;5074065;28;20024;-72
2022/10/05 01:45:29;;;;;;;16.27;7.97;;;16.00;99.90;;;;;;5056098;28;20042;-72
2022/10/05 01:48:07;;;;;;;16.02;8.48;;;15.90;99.90;;;;;;5056005;28;20028;-72
2022/10/05 01:50:44;;;;;;;15.90;8.25;;;16.00;99.90;;;;;;5056161;28;20481;-72
2022/10/05 01:53:29;;;;;;;15.13;8.27;;;16.00;99.90;;;;;;5056002;28;20029;-72
2022/10/05 01:56:18;;;;;;;13.60;7.97;;;16.00;99.90;;;;;;5073669;28;20107;-71
2022/10/05 01:58:57;;;;;;;12.80;7.85;;;15.90;99.90;;;;;;5055685;28;20090;-72
2022/10/05 02:01:43;;;;;;;13.30;7.50;;;15.90;99.90;;;;;;5073358;28;20017;-72
2022/10/05 02:04:21;;;;;;;11.90;8.30;;;16.00;99.90;;;;;;5055451;28;20028;-72
2022/10/05 02:06:49;;;;;;;14.23;8.82;;;16.20;99.90;;;;;;5073615;28;20412;-72
2022/10/05 02:09:28;;;;;;;14.05;7.78;;;15.90;99.90;;;;;;5055234;28;20040;-69
2022/10/05 02:12:01;;;;;;;13.73;7.55;;;15.80;99.90;;;;;;5073623;28;20469;-72
2022/10/05 02:14:37;;;;;;;9.85;6.85;;;15.90;99.90;;;;;;5055255;28;20033;-72
2022/10/05 02:17:10;;;;;;;10.52;6.97;;;15.90;99.90;;;;;;5073267;28;20086;-72
2022/10/05 02:19:47;;;;;;;11.13;7.18;;;16.00;99.90;;;;;;5055213;28;20036;-72
2022/10/05 02:22:27;;;;;;;10.57;6.60;;;15.90;99.90;;;;;;5073596;28;20024;-72
2022/10/05 02:25:07;;;;;;;10.98;7.25;;;16.10;99.90;;;;;;5054831;28;20548;-72
2022/10/05 02:27:43;;;;;;;10.35;6.57;;;16.10;99.90;;;;;;5055412;28;20032;-72
2022/10/05 02:30:10;;;;;;;12.65;6.78;;;16.10;99.90;;;;;;5054970;28;20036;-72
2022/10/05 02:32:48;;;;;;;;;;;16.10;99.90;;;;;;5055603;28;20477;-71
2022/10/05 02:35:17;;;;;;;6.78;5.38;;;16.10;99.90;;;;;;5072877;28;19912;-72
2022/10/05 02:38:22;;;;;;;9.18;5.88;;;16.10;99.90;;;;;;5055003;28;20070;-72
2022/10/05 02:41:07;;;;;;;12.13;6.53;;;16.20;99.90;;;;;;5055064;28;20116;-72
2022/10/05 02:43:49;;;;;;;9.60;5.95;;;16.10;99.90;;;;;;5054793;28;20043;-69
2022/10/05 02:46:23;;;;;;;14.85;6.68;;;16.10;99.90;;;;;;5054984;28;20166;-69
2022/10/05 02:49:13;;;;;;;7.90;5.40;;;16.00;99.90;;;;;;5072390;28;20071;-67
2022/10/05 02:51:50;;;;;;;7.35;4.88;;;16.20;99.90;;;;;;5054805;28;20028;-68
2022/10/05 02:55:05;;;;;;;11.82;4.85;;;16.20;99.90;;;;;;5072691;28;20036;-68
2022/10/05 02:57:38;;;;;;;8.40;5.05;;;16.00;99.90;;;;;;5027956;28;20523;-67
2022/10/05 03:00:18;;;;;;;9.43;5.25;;;16.10;99.90;;;;;;5054625;28;20031;-68
2022/10/05 03:03:03;;;;;;;7.80;4.78;;;16.10;99.90;;;;;;5054701;28;20078;-68
2022/10/05 03:05:47;;;;;;;6.88;4.90;;;16.00;99.90;;;;;;5054570;28;20123;-69
2022/10/05 03:08:45;;;;;;;8.93;5.28;;;16.00;99.90;;;;;;5040804;28;20025;-72
2022/10/05 03:11:24;;;;;;;6.18;4.82;;;15.90;99.90;;;;;;5054683;28;20032;-70
2022/10/05 03:14:02;;;;;;;8.75;5.22;;;16.00;99.90;;;;;;5037882;28;20058;-72
2022/10/05 03:16:40;;;;;;;9.77;5.30;;;15.90;99.90;;;;;;5054507;28;20101;-71
2022/10/05 03:19:25;;;;;;;10.77;5.35;;;15.90;99.90;;;;;;5054529;28;20044;-72
2022/10/05 03:22:09;;;;;;;7.35;5.50;;;15.80;99.90;;;;;;5040498;28;20384;-71
2022/10/05 03:24:51;;;;;;;9.80;5.30;;;15.90;99.90;;;;;;5053966;28;20024;-72
2022/10/05 03:27:35;;;;;;;8.85;5.40;;;16.00;99.90;;;;;;5054453;28;20128;-71
2022/10/05 03:30:07;;;;;;;12.18;5.47;;;16.00;99.90;;;;;;5037516;28;20043;-72
2022/10/05 03:32:44;;;;;;;11.23;5.43;;;15.90;99.90;;;;;;5054389;28;20374;-72
2022/10/05 03:35:31;;;;;;;13.93;6.32;;;15.90;99.90;;;;;;5072340;28;20380;-72
2022/10/05 03:38:19;;;;;;;8.48;5.88;;;15.90;99.90;;;;;;5054154;28;20485;-71
2022/10/05 03:41:20;;;;;;;10.90;5.93;;;16.00;99.90;;;;;;5054199;28;20017;-72
2022/10/05 03:44:10;;;;;;;7.10;5.38;;;15.80;99.90;;;;;;5054275;28;20028;-71
2022/10/05 03:47:00;;;;;;;7.60;5.35;;;15.80;99.90;;;;;;5057406;28;20384;-71
2022/10/05 03:49:32;;;;;;;11.30;5.47;;;15.90;99.90;;;;;;5054628;28;20555;-72
2022/10/05 03:52:06;;;;;;;8.68;5.65;;;16.00;99.90;;;;;;5050414;28;20020;-72
2022/10/05 03:54:38;;;;;;;10.80;4.88;;;15.90;99.90;;;;;;5075711;28;20025;-72
2022/10/05 03:57:14;;;;;;;6.90;5.07;;;15.80;99.90;;;;;;5058163;28;20032;-72
2022/10/05 03:59:52;;;;;;;8.73;4.78;;;15.60;99.90;;;;;;5075771;28;20028;-70
2022/10/05 04:02:28;;;;;;;5.88;4.85;;;15.70;99.90;;;;;;5058132;28;20031;-71
2022/10/05 04:05:11;;;;;;;7.93;5.10;;;15.70;99.90;;;;;;5057648;28;20039;-70
2022/10/05 04:07:49;;;;;;;13.18;5.10;;;15.70;99.90;;;;;;5057636;28;20028;-71
2022/10/05 04:10:22;;;;;;;12.82;4.95;;;15.80;99.90;;;;;;5057554;28;20040;-72
2022/10/05 04:12:57;;;;;;;10.50;5.40;;;15.80;99.90;;;;;;5057759;28;20028;-72
2022/10/05 04:15:38;;;;;;;7.50;5.18;;;15.80;99.90;;;;;;5057803;28;20047;-72
2022/10/05 04:18:14;;;;;;;5.60;4.75;;;15.80;99.90;;;;;;5075401;28;20028;-70
2022/10/05 04:20:47;;;;;;;9.85;5.50;;;15.80;99.90;;;;;;5057479;28;20059;-72
2022/10/05 04:23:20;;;;;;;6.70;4.85;;;16.00;99.90;;;;;;5058503;28;20024;-68
2022/10/05 04:26:03;;;;;;;12.95;4.40;;;15.80;99.90;;;;;;5057483;28;20131;-68
2022/10/05 04:28:35;;;;;;;;;;;15.70;99.90;;;;;;5057523;28;20039;-71
2022/10/05 04:31:04;;;;;;;7.93;4.45;;;15.70;99.90;;;;;;5057423;28;19931;-72
2022/10/05 04:33:31;;;;;;;8.85;4.38;;;15.80;99.90;;;;;;5057051;28;20025;-71
2022/10/05 04:36:25;;;;;;;11.07;5.15;;;15.80;99.90;;;;;;5057435;28;20021;-72
2022/10/05 04:39:24;;;;;;;10.13;4.47;;;15.90;99.90;;;;;;5057242;28;20027;-71
2022/10/05 04:41:56;;;;;;;5.68;4.40;;;15.90;99.90;;;;;;5046309;28;20638;-67
2022/10/05 04:45:05;;;;;;;6.50;4.55;;;15.90;99.90;;;;;;5057450;28;20054;-69
2022/10/05 04:48:14;;;;;;;9.63;4.65;;;15.90;99.90;;;;;;5050022;28;20037;-72
2022/10/05 04:50:46;;;;;;;7.85;4.65;;;15.80;99.90;;;;;;5046337;28;20408;-71
2022/10/05 04:53:30;;;;;;;6.20;4.88;;;15.70;99.90;;;;;;5057130;28;20037;-72
2022/10/05 04:56:14;;;;;;;;;;;15.60;99.90;;;;;;5040085;28;20103;-72
2022/10/05 04:59:19;;;;;;;7.85;4.80;;;15.60;99.90;;;;;;5057057;28;19912;-72
2022/10/05 05:02:00;;;;;;;7.97;4.05;;;15.60;99.90;;;;;;5062404;28;20024;-73
2022/10/05 05:04:42;;;;;;;12.90;5.22;;;15.60;99.90;;;;;;5056511;28;20115;-73
2022/10/05 05:07:35;;;;;;;12.20;4.95;;;15.60;99.90;;;;;;5074668;28;20060;-72
2022/10/05 05:10:19;;;;;;;7.78;4.90;;;15.80;99.90;;;;;;5043781;28;20047;-72
2022/10/05 05:13:03;;;;;;;10.48;5.07;;;15.60;99.90;;;;;;5074589;28;20050;-72
2022/10/05 05:15:52;;;;;;;15.25;5.18;;;15.50;99.90;;;;;;5056671;28;20036;-72
2022/10/05 05:18:55;;;;;;;12.65;5.25;;;15.60;99.90;;;;;;5055929;28;20473;-72
2022/10/05 05:21:46;;;;;;;9.25;4.93;;;15.70;99.90;;;;;;5056436;28;20484;-72
2022/10/05 05:24:18;;;;;;;10.63;4.80;;;15.50;99.90;;;;;;5074655;28;20028;-73
2022/10/05 05:27:18;;;;;;;6.80;5.10;;;15.50;99.90;;;;;;5055942;28;20031;-71
2022/10/05 05:29:50;;;;;;;12.70;4.70;;;15.60;99.90;;;;;;5073698;28;20548;-73
2022/10/05 05:32:43;;;;;;;9.55;4.93;;;15.50;99.90;;;;;;5056109;28;20021;-72
2022/10/05 05:35:23;;;;;;;7.97;4.72;;;15.50;99.90;;;;;;5056243;28;20107;-68
2022/10/05 05:38:08;;;;;;;8.10;4.93;;;15.50;99.90;;;;;;5056194;28;20107;-70
2022/10/05 05:40:43;;;;;;;10.00;5.53;;;15.40;99.90;;;;;;5060413;28;20504;-68
2022/10/05 05:43:39;;;;;;;7.32;5.30;;;15.40;99.90;;;;;;5055957;28;20028;-71
2022/10/05 05:46:21;;;;;;;6.55;4.43;;;15.50;99.90;;;;;;5047381;28;20040;-71
2022/10/05 05:48:50;;;;;;;6.70;4.00;;;15.50;99.90;;;;;;5055465;28;20025;-73
2022/10/05 05:51:46;;;;;;;7.95;4.78;;;15.60;99.90;;;;;;5055958;28;20059;-70
2022/10/05 05:54:25;;;;;;;8.25;4.50;;;15.70;99.90;;;;;;5053872;28;20366;-72
2022/10/05 05:57:17;;;;;;;5.65;4.25;;;15.60;99.90;;;;;;5055675;28;20046;-72
2022/10/05 05:59:43;;;;;;;8.77;4.60;;;15.50;99.90;;;;;;5045336;28;20143;-71
2022/10/05 06:02:18;;;;;;;6.75;4.55;;;15.60;99.90;;;;;;5055214;28;20477;-71
2022/10/05 06:04:49;;;;;;;6.75;4.60;;;15.40;99.90;;;;;;5054973;28;20016;-72
2022/10/05 06:07:22;;;;;;;10.93;5.03;;;15.40;99.90;;;;;;5055376;28;20033;-71
2022/10/05 06:09:51;;;;;;;7.68;4.00;;;15.50;99.90;;;;;;5055002;28;20028;-71
2022/10/05 06:12:41;;;;;;;6.22;3.95;;;15.60;99.90;;;;;;5055763;28;20417;-70
2022/10/05 06:15:27;;;;;;;5.03;3.67;;;15.70;99.90;;;;;;5041997;28;20035;-68
2022/10/05 06:17:59;;;;;;;8.57;4.00;;;15.80;99.90;;;;;;5072941;28;20040;-72
2022/10/05 06:20:35;;;;;;;13.63;3.97;;;15.70;99.90;;;;;;5055530;28;20471;-70
2022/10/05 06:23:08;;;;;;;7.68;3.38;;;15.60;99.90;;;;;;5055142;28;20056;-70
2022/10/05 06:26:11;;;;;;;6.00;3.22;;;15.60;99.90;;;;;;5073118;28;20036;-70
2022/10/05 06:28:40;;;;;;;5.10;3.08;;;15.60;99.90;;;;;;5041397;28;20064;-70
2022/10/05 06:31:18;;;;;;;6.40;2.80;;;15.80;99.90;;;;;;5071477;28;20048;-71
2022/10/05 06:33:51;;;;;;;8.27;3.13;;;15.90;99.90;;;;;;5053828;28;20024;-71
2022/10/05 06:36:55;;;;;;;3.90;2.60;;;15.80;99.90;;;;;;5060385;28;20515;-70
2022/10/05 06:39:33;;;;;;;7.15;2.85;;;15.90;99.90;;;;;;5041013;28;20041;-71
2022/10/05 06:42:06;;;;;;;7.95;2.00;;;15.90;99.90;;;;;;5027691;28;20025;-71
2022/10/05 06:44:59;;;;;;;6.70;2.65;;;15.90;99.90;;;;;;5069801;28;20123;-69
2022/10/05 06:48:04;;;;;;;3.90;2.58;;;15.90;99.90;;;;;;5038599;28;20052;-71
2022/10/05 06:51:50;;;;;;;3.47;2.28;;;16.00;99.90;;;;;;5058608;28;20048;-69
2022/10/05 06:54:56;;;;;;;6.93;2.10;;;16.00;99.90;;;;;;5029773;28;20117;-71
2022/10/05 06:57:50;;;;;;;10.80;2.88;;;16.00;99.90;;;;;;5065150;28;20439;-71
2022/10/05 07:00:36;;;;;;;3.88;2.72;;;16.10;99.90;;;;;;5050594;28;20035;-71
2022/10/05 07:03:16;;;;;;;11.20;2.72;;;16.10;99.90;;;;;;5046024;28;20023;-71
2022/10/05 07:06:10;;;;;;;6.15;2.35;;;16.20;99.90;;;;;;5043968;28;20040;-71
2022/10/05 07:08:46;;;;;;;5.28;2.17;;;16.30;99.90;;;;;;5072694;28;20386;-71
2022/10/05 07:11:45;;;;;;;5.97;2.42;;;16.40;99.90;;;;;;5045085;28;20033;-71
2022/10/05 07:14:15;;;;;;;7.47;2.95;;;16.60;99.90;;;;;;5064942;28;20151;-71
2022/10/05 07:16:56;;;;;;;14.15;2.53;;;16.40;99.90;;;;;;5072789;28;20354;-68
2022/10/05 07:19:48;;;;;;;6.97;2.50;;;16.40;99.90;;;;;;5065560;28;20024;-68
2022/10/05 07:22:43;;;;;;;;;;;16.40;99.90;;;;;;5055461;28;20029;-71
2022/10/05 07:25:20;;;;;;;16.00;3.47;;;16.50;99.90;;;;;;5074992;28;20285;-71
2022/10/05 07:27:51;;;;;;;22.17;3.53;;;16.70;99.90;;;;;;5057295;28;20025;-71
2022/10/05 07:30:18;;;;;;;17.10;3.08;;;16.40;99.90;;;;;;5057648;28;20396;-72
2022/10/05 07:32:47;;;;;;;13.95;3.83;;;16.50;99.90;;;;;;5052265;28;20021;-72
2022/10/05 07:37:53;;;;;;;9.20;3.65;;;16.40;99.90;;;;;;5057497;28;20030;-71
2022/10/05 07:38:23;;;;;;;15.43;3.20;;;16.30;99.90;;;;;;5048648;28;20044;-71
2022/10/05 07:41:03;;;;;;;27.45;4.10;;;16.30;99.90;;;;;;5047950;28;20028;-71
2022/10/05 07:43:42;;;;;;;11.20;3.53;;;16.30;99.90;;;;;;5056652;28;20032;-71
2022/10/05 07:46:33;;;;;;;7.70;3.33;;;16.50;99.90;;;;;;5067896;28;20020;-71
2022/10/05 07:49:02;;;;;;;7.85;3.53;;;16.50;99.90;;;;;;5073116;28;20041;-71
2022/10/05 07:51:33;;;;;;;12.48;3.85;;;16.50;99.90;;;;;;5061674;28;20020;-71
2022/10/05 07:54:22;;;;;;;7.25;3.70;;;16.50;99.90;;;;;;5059076;28;20043;-72
2022/10/05 07:57:18;;;;;;;10.43;3.88;;;16.40;99.90;;;;;;5054839;28;20021;-71
2022/10/05 08:00:02;;;;;;;9.48;3.67;;;16.50;99.90;;;;;;5009123;28;20041;-71
2022/10/05 08:03:05;;;;;;;6.53;3.47;;;16.60;99.90;;;;;;5074897;28;20028;-72
2022/10/05 08:05:34;;;;;;;5.38;2.78;;;16.60;99.90;;;;;;5057250;28;20043;-71
2022/10/05 08:08:27;;;;;;;6.78;3.40;;;16.50;99.90;;;;;;5074718;28;20495;-71
2022/10/05 08:10:59;;;;;;;9.52;4.25;;;16.50;99.90;;;;;;5074450;28;20056;-71
2022/10/05 08:13:24;;;;;;;;;;;16.50;99.90;;;;;;5071870;28;20119;-71
2022/10/05 08:15:56;;;;;;;9.35;3.95;;;16.60;99.90;;;;;;5074612;28;19998;-69
2022/10/05 08:19:01;;;;;;;8.75;3.83;;;16.50;99.90;;;;;;5073973;28;20475;-70
2022/10/05 08:21:30;;;;;;;9.38;3.70;;;16.40;99.90;;;;;;5071705;28;20050;-70
2022/10/05 08:24:08;;;;;;;8.38;3.67;;;16.50;99.90;;;;;;5074550;28;20488;-71
2022/10/05 08:26:37;;;;;;;15.23;4.40;;;16.60;99.90;;;;;;5071226;28;20046;-71
2022/10/05 08:29:19;;;;;;;12.23;4.18;;;16.90;99.90;;;;;;5069491;28;20044;-71
2022/10/05 08:32:00;;;;;;;8.48;4.07;;;16.80;99.90;;;;;;5065711;28;20099;-71
2022/10/05 08:34:41;;;;;;;14.80;4.30;;;16.80;99.90;;;;;;5069469;28;20116;-70
2022/10/05 08:37:26;;;;;;;8.93;4.47;;;16.60;99.90;;;;;;5074095;28;20739;-71
2022/10/05 08:40:13;;;;;;;9.20;4.28;;;16.60;99.90;;;;;;5073901;28;20021;-71
2022/10/05 08:42:39;;;;;;;7.28;4.05;;;16.70;99.90;;;;;;5074220;28;20031;-70
2022/10/05 08:45:16;;;;;;;6.10;3.60;;;16.80;99.90;;;;;;5073917;28;20016;-71
2022/10/05 08:48:08;;;;;;;8.20;4.13;;;16.80;99.90;;;;;;5071788;28;20580;-70
2022/10/05 08:50:34;;;;;;;6.88;4.00;;;17.10;99.90;;;;;;5066152;28;20633;-71
2022/10/05 08:53:48;;;;;;;16.27;3.53;;;17.10;99.90;;;;;;5073736;28;20111;-70
2022/10/05 08:56:34;;;;;;;5.15;3.45;;;17.10;99.90;;;;;;5071114;28;20039;-71
2022/10/05 08:59:06;;;;;;;10.75;4.05;;;17.20;99.90;;;;;;5071966;28;20507;-71
2022/10/05 09:02:03;;;;;;;7.45;3.67;;;17.00;99.90;;;;;;5070472;28;20021;-72
2022/10/05 09:04:47;;;;;;;14.32;4.03;;;17.10;99.90;;;;;;5070279;28;20037;-70
2022/10/05 09:07:41;;;;;;;5.30;3.05;;;17.00;99.90;;;;;;5067264;28;20388;-71
2022/10/05 09:10:28;;;;;;;5.32;3.50;;;16.80;99.90;;;;;;5071452;28;20055;-71
2022/10/05 09:13:48;;;;;;;6.47;3.65;;;17.00;99.90;;;;;;5072124;28;20059;-69
2022/10/05 09:16:51;;;;;;;12.43;3.28;;;17.20;99.90;;;;;;5005643;28;20049;-71
2022/10/05 09:19:47;;;;;;;9.43;3.88;;;17.30;99.90;;;;;;5005103;28;20030;-71
2022/10/05 09:22:20;;;;;;;7.78;3.50;;;17.10;99.90;;;;;;5072764;28;20398;-71
2022/10/05 09:25:21;;;;;;;12.50;3.90;;;16.90;99.90;;;;;;5074575;28;20048;-71
2022/10/05 09:28:03;;;;;;;9.88;3.45;;;17.10;99.90;;;;;;5077287;28;20113;-71
2022/10/05 09:31:07;;;;;;;8.70;3.35;;;17.30;99.90;;;;;;5076320;28;20059;-71
2022/10/05 09:33:59;;;;;;;8.07;2.80;;;17.30;99.90;;;;;;5088109;28;20055;-73
2022/10/05 09:36:50;;;;;;;9.40;3.53;;;17.40;99.90;;;;;;5093259;28;20028;-70
2022/10/05 09:39:37;;;;;;;10.05;3.10;;;17.60;99.90;;;;;;5067127;28;20047;-71
2022/10/05 09:42:28;;;;;;;12.82;2.92;;;17.70;99.90;;;;;;5066534;28;20028;-70
2022/10/05 09:45:34;;;;;;;7.13;2.37;;;17.80;99.90;;;;;;5086689;28;20063;-69
2022/10/05 09:48:32;;;;;;;5.90;2.83;;;17.60;99.90;;;;;;5081753;28;20033;-70
2022/10/05 09:51:03;;;;;;;9.18;2.72;;;17.70;99.90;;;;;;5017454;28;20048;-68
2022/10/05 09:53:58;;;;;;;12.52;2.90;;;17.70;99.90;;;;;;5072812;28;20035;-69
2022/10/05 09:57:04;;;;;;;3.63;2.80;;;17.80;99.90;;;;;;5056551;28;20036;-70
2022/10/05 09:59:35;;;;;;;10.35;2.65;;;17.60;99.90;;;;;;5073506;28;20052;-70
2022/10/05 10:02:26;;;;;;;6.50;2.13;;;17.80;99.90;;;;;;5073662;28;20150;-71
2022/10/05 10:05:10;;;;;;;7.65;2.50;;;18.00;99.90;;;;;;5059612;28;20064;-70
2022/10/05 10:08:20;;;;;;;4.47;2.53;;;17.90;99.90;;;;;;5072762;28;20357;-70
2022/10/05 10:11:14;;;;;;;6.78;2.47;;;17.90;99.90;;;;;;5032856;28;20055;-70
2022/10/05 10:14:03;;;;;;;6.28;2.58;;;18.10;99.90;;;;;;5073274;28;20464;-71
2022/10/05 10:17:06;;;;;;;9.93;2.22;;;18.00;99.90;;;;;;5073342;28;20069;-71
2022/10/05 10:19:50;;;;;;;7.68;2.30;;;17.90;99.90;;;;;;5073064;28;20039;-71
2022/10/05 10:22:33;;;;;;;4.60;2.53;;;18.10;99.90;;;;;;5055056;28;20120;-71
2022/10/05 10:25:33;;;;;;;11.77;2.70;;;18.30;99.90;;;;;;5053150;28;20506;-71
2022/10/05 10:28:14;;;;;;;6.03;2.40;;;18.30;99.90;;;;;;5066769;28;20044;-71
2022/10/05 10:30:58;;;;;;;4.97;2.53;;;18.40;99.90;;;;;;5073024;28;20067;-71
2022/10/05 10:34:02;;;;;;;13.32;2.35;;;18.30;99.90;;;;;;5067198;28;20185;-68
2022/10/05 10:36:55;;;;;;;4.63;2.13;;;18.30;99.90;;;;;;5072236;28;20031;-67
2022/10/05 10:39:58;;;;;;;7.72;3.63;;;18.30;99.90;;;;;;5071916;28;20269;-71
2022/10/05 10:42:59;;;;;;;10.20;3.08;;;18.40;99.90;;;;;;5061126;28;20067;-71
2022/10/05 10:45:39;;;;;;;6.53;2.72;;;18.20;99.90;;;;;;5071775;28;20029;-73
2022/10/05 10:48:29;;;;;;;5.70;2.70;;;18.30;99.90;;;;;;5061507;28;20056;-70
2022/10/05 10:51:13;;;;;;;5.30;2.22;;;18.30;99.90;;;;;;5069294;28;20062;-71
2022/10/05 10:54:03;;;;;;;8.68;2.50;;;18.20;99.90;;;;;;5071767;28;20033;-69
2022/10/05 10:56:38;;;;;;;12.38;3.65;;;18.30;99.90;;;;;;5041499;28;20449;-70
2022/10/05 10:59:41;;;;;;;16.17;2.72;;;18.60;99.90;;;;;;5053324;28;20130;-70
2022/10/05 11:02:35;;;;;;;12.82;2.67;;;18.40;99.90;;;;;;5064012;28;20064;-71
2022/10/05 11:05:16;;;;;;;4.00;2.15;;;18.50;99.90;;;;;;5070433;28;20040;-69
2022/10/05 11:08:07;;;;;;;11.23;2.40;;;19.00;99.90;;;;;;5061422;28;20060;-67
2022/10/05 11:11:21;;;;;;;6.25;2.30;;;18.90;99.90;;;;;;5062902;28;20094;-69
2022/10/05 11:13:47;;;;;;;9.50;2.28;;;19.20;99.90;;;;;;5040624;28;20028;-70
2022/10/05 11:16:38;;;;;;;9.15;2.90;;;19.20;99.90;;;;;;5071363;28;20514;-70
2022/10/05 11:19:28;;;;;;;9.48;2.30;;;19.40;99.90;;;;;;5063219;28;20109;-71
2022/10/05 11:22:19;;;;;;;5.65;2.33;;;19.20;99.90;;;;;;5070197;28;20060;-70
2022/10/05 11:24:58;;;;;;;5.43;1.92;;;19.10;99.90;;;;;;5071367;28;20062;-69
2022/10/05 11:28:14;;;;;;;4.43;2.17;;;19.10;99.90;;;;;;5066016;28;20123;-69
2022/10/05 11:30:48;;;;;;;9.05;2.58;;;20.10;99.90;;;;;;5024188;28;20028;-71
2022/10/05 11:33:23;;;;;;;8.82;2.75;;;19.80;99.90;;;;;;5060658;28;20476;-71
2022/10/05 11:36:19;;;;;;;6.47;2.22;;;20.10;99.90;;;;;;5064746;28;20017;-73
2022/10/05 11:39:06;;;;;;;8.23;1.80;;;20.90;99.90;;;;;;5064340;28;20476;-72
2022/10/05 11:41:53;;;;;;;4.45;1.70;;;20.90;99.90;;;;;;5068080;28;20086;-72
2022/10/05 11:44:34;;;;;;;3.53;2.17;;;21.20;99.90;;;;;;5071982;28;20086;-71
2022/10/05 11:47:23;;;;;;;8.05;1.90;;;20.10;99.90;;;;;;5072227;28;20052;-72
2022/10/05 11:50:11;;;;;;;9.90;2.45;;;19.90;99.90;;;;;;5042499;28;20036;-72
2022/10/05 11:53:00;;;;;;;12.30;2.25;;;19.60;99.90;;;;;;5072157;28;20027;-71
2022/10/05 11:55:56;;;;;;;11.32;2.17;;;19.70;99.90;;;;;;5071897;28;20420;-71
2022/10/05 11:58:26;;;;;;;7.57;2.30;;;19.40;99.90;;;;;;5043429;28;20102;-72
2022/10/05 12:01:02;;;;;;;6.30;2.22;;;19.30;99.90;;;;;;5071953;28;20086;-72
2022/10/05 12:03:58;;;;;;;7.28;1.80;;;19.40;99.90;;;;;;5071801;28;20028;-72
2022/10/05 12:06:38;;;;;;;5.47;1.90;;;19.40;99.90;;;;;;5073343;28;20365;-72
2022/10/05 12:09:20;;;;;;;3.45;1.80;;;19.10;99.90;;;;;;5075668;28;20036;-72
2022/10/05 12:12:02;;;;;;;4.07;2.03;;;19.10;99.90;;;;;;5066165;28;20037;-71
2022/10/05 12:14:41;;;;;;;6.50;2.47;;;19.50;99.90;;;;;;5075665;28;20101;-72
2022/10/05 12:17:33;;;;;;;4.05;2.20;;;19.90;99.90;;;;;;5075506;28;20051;-71
2022/10/05 12:20:10;;;;;;;3.55;1.98;;;19.50;99.90;;;;;;5075561;28;20400;-71
2022/10/05 12:22:35;;;;;;;9.45;2.15;;;19.60;99.90;;;;;;5057688;28;20032;-72
2022/10/05 12:25:35;;;;;;;9.43;2.47;;;19.30;99.90;;;;;;5075410;28;20362;-71
2022/10/05 12:28:22;;;;;;;9.75;2.45;;;19.40;99.90;;;;;;5040647;28;20045;-71
2022/10/05 12:31:02;;;;;;;5.28;2.20;;;19.30;99.90;;;;;;5075012;28;20045;-72
2022/10/05 12:33:56;;;;;;;10.07;2.55;;;19.20;99.90;;;;;;5075092;28;20020;-72
2022/10/05 12:36:38;;;;;;;9.52;2.38;;;19.00;99.90;;;;;;5075293;28;20081;-71
2022/10/05 12:39:22;;;;;;;4.35;2.50;;;18.90;99.90;;;;;;5075334;28;20047;-72
2022/10/05 12:42:06;;;;;;;7.55;2.50;;;19.00;99.90;;;;;;5074905;28;20469;-72
2022/10/05 12:44:57;;;;;;;5.50;2.05;;;19.20;99.90;;;;;;5075147;28;20489;-71
2022/10/05 12:47:26;;;;;;;7.95;2.38;;;19.20;99.90;;;;;;5061151;28;20078;-71
2022/10/05 12:49:57;;;;;;;7.15;2.15;;;19.00;99.90;;;;;;5075149;28;20048;-72
2022/10/05 12:52:37;;;;;;;6.88;2.20;;;19.00;99.90;;;;;;5074899;28;20444;-72
2022/10/05 12:55:09;;;;;;;4.10;2.17;;;18.90;99.90;;;;;;5074889;28;20110;-72
2022/10/05 12:57:53;;;;;;;8.13;2.80;;;18.90;99.90;;;;;;5074631;28;20037;-72
2022/10/05 13:00:19;;;;;;;5.30;2.05;;;19.00;99.90;;;;;;5074223;28;20071;-72
2022/10/05 13:02:47;;;;;;;9.32;2.60;;;19.00;99.90;;;;;;5066934;28;20376;-72
2022/10/05 13:05:22;;;;;;;7.78;2.20;;;18.80;99.90;;;;;;5074343;28;20020;-71
2022/10/05 13:08:06;;;;;;;5.75;1.83;;;18.70;99.90;;;;;;5074250;28;20426;-71
2022/10/05 13:10:43;;;;;;;8.55;2.75;;;18.90;99.90;;;;;;5074578;28;20127;-70
2022/10/05 13:13:36;;;;;;;7.93;2.10;;;18.60;99.90;;;;;;5056525;28;20500;-72
2022/10/05 13:16:06;;;;;;;8.73;2.17;;;18.80;99.90;;;;;;5074171;28;20041;-72
2022/10/05 13:18:57;;;;;;;8.70;1.87;;;18.90;99.90;;;;;;5073223;28;20044;-72
2022/10/05 13:21:46;;;;;;;1.98;1.30;;;18.60;99.90;;;;;;5056439;28;20036;-72
2022/10/05 13:24:21;;;;;;;2.78;1.80;;;18.40;99.90;;;;;;5074319;28;20082;-72
2022/10/05 13:26:58;;;;;;;6.53;2.60;;;18.30;99.90;;;;;;5073967;28;20117;-71
2022/10/05 13:29:48;;;;;;;5.53;2.00;;;18.20;99.90;;;;;;5074080;28;20037;-72
2022/10/05 13:32:43;;;;;;;11.27;2.15;;;18.30;99.90;;;;;;5062041;28;20040;-71
2022/10/05 13:35:24;;;;;;;9.07;2.30;;;18.50;99.90;;;;;;5049431;28;20048;-72
2022/10/05 13:38:24;;;;;;;7.13;2.00;;;18.60;99.90;;;;;;5074054;28;20105;-72
2022/10/05 13:41:02;;;;;;;6.68;1.77;;;18.50;99.90;;;;;;5062450;28;20044;-71
2022/10/05 13:43:59;;;;;;;9.73;2.38;;;18.50;99.90;;;;;;5055975;28;20044;-71
2022/10/05 13:46:32;;;;;;;4.75;2.08;;;18.30;99.90;;;;;;5073730;28;20029;-71
2022/10/05 13:49:45;;;;;;;5.20;1.88;;;18.30;99.90;;;;;;5073327;28;20108;-71
2022/10/05 13:52:28;;;;;;;6.80;2.17;;;18.40;99.90;;;;;;4992321;28;20034;-71
2022/10/05 13:55:00;;;;;;;5.30;1.33;;;18.40;99.90;;;;;;5073453;28;20041;-72
2022/10/05 13:58:09;;;;;;;5.10;1.67;;;18.50;99.90;;;;;;5073220;28;20036;-69
2022/10/05 14:00:46;;;;;;;7.65;1.70;;;18.60;99.90;;;;;;4991976;28;20183;-67
2022/10/05 14:03:33;;;;;;;4.03;1.92;;;18.50;99.90;;;;;;5062975;28;20393;-68
2022/10/05 14:06:02;;;;;;;2.55;1.88;;;18.40;99.90;;;;;;5055450;28;20159;-71
2022/10/05 14:08:52;;;;;;;4.05;1.60;;;18.10;99.90;;;;;;5073275;28;20476;-70